Etusivu
METAR-TAF:

METAR-TAF

Lentoasemat :

Eureka, Nunavut, Kanada

Leveyspiiri: 79-59N, Pituuspiiri: 085-56W, korkeus merenpinnasta: 10 m

Tämänhetkinen sää

Tämä raportti tehtiin 2 tuntia ja 55 minuuttia sitten, kello 03.00 UTC
Tuuli 15 kn pohjoisesta/koillisesta
Lämpötila -6°C
Kosteus 73%
Ilmanpaine 1018 hPa
Näkyvyys: 24.1 km
Muutamia pilviä 3000 ft:n korkeudessa
Hajanaisia pilviä 9600 ft:n korkeudessa

METAR: CWEU 250300Z 02015KT 15SM FEW030 SCT096 M06/M10 A3005 RMK SC1AC3 LAST STFD OBS/NXT 250600Z SLP189

Aika: 00:55 (05:55 UTC)


TAF: puuttuu

Säähavainnot ja -ennusteet yli 4000 lentoasemalta (METAR- ja TAF-raportit).

Käytössä olevat sääasemat on merkitty karttaan keltaisilla ja punaisilla pisteillä.

Aseta hiiri pisteen päälle nähdäksesi sääaseman nimen.

Klikkaa sitten nähdäksesi säähavainnot ja -ennusteet.

Kartan vaihtaminen: klikkaa mustalla rastilla varustettuja vihreitä pisteitä, niin voit zoomata sisään; viivalla varustettua vihreää pistettä, niin voit zoomata ulos tai vihreitä nuolia, niin pääset viereisille kartoille.


METAR-TAF: